Time;durP1;ratioP1;P1;durP2;ratioP2;P2;SDS_P1;SDS_P2;PMS_P1;PMS_P2;Temp;Humidity;BMP_temperature;BMP_pressure;BME280_temperature;BME280_humidity;BME280_pressure;Samples;Min_cycle;Max_cycle;Signal;HPM_P1;HPM_P2
2022/10/17 00:00:11;;;;;;;13.43;2.90;;;13.00;99.90;;;13.86;100.00;98603.19;5007589;28;20493;-87
2022/10/17 00:02:40;;;;;;;20.53;3.60;;;13.00;99.90;;;13.83;100.00;98600.97;5008543;28;20537;-88
2022/10/17 00:05:11;;;;;;;11.67;3.17;;;13.00;99.90;;;13.79;100.00;98605.78;5010626;28;20491;-87
2022/10/17 00:07:42;;;;;;;19.33;3.10;;;12.90;99.90;;;13.80;100.00;98606.59;5008012;28;20459;-88
2022/10/17 00:10:10;;;;;;;16.23;3.27;;;13.00;99.90;;;13.78;100.00;98611.25;5010592;28;20936;-89
2022/10/17 00:12:39;;;;;;;12.47;3.50;;;12.90;99.90;;;13.78;100.00;98619.16;5009508;28;20490;-87
2022/10/17 00:15:10;;;;;;;13.53;2.93;;;12.90;99.90;;;13.74;100.00;98612.63;5010128;28;20508;-87
2022/10/17 00:17:40;;;;;;;25.10;4.33;;;12.90;99.90;;;13.70;100.00;98606.16;5009072;28;20466;-87
2022/10/17 00:20:10;;;;;;;33.30;4.00;;;12.90;99.90;;;13.69;100.00;98610.59;5009895;28;20459;-87
2022/10/17 00:22:43;;;;;;;27.17;4.00;;;12.90;99.90;;;13.66;100.00;98610.16;5007797;28;20474;-87
2022/10/17 00:25:13;;;;;;;33.83;3.33;;;12.90;99.90;;;13.66;100.00;98615.41;5003899;28;20546;-87
2022/10/17 00:27:43;;;;;;;31.10;3.50;;;12.80;99.90;;;13.60;100.00;98609.94;5006068;28;21042;-88
2022/10/17 00:30:15;;;;;;;19.50;3.30;;;12.80;99.90;;;13.59;100.00;98605.69;5007324;28;20505;-87
2022/10/17 00:32:44;;;;;;;29.07;3.10;;;12.80;99.90;;;13.56;100.00;98602.63;5004725;28;20491;-87
2022/10/17 00:35:13;;;;;;;14.67;3.40;;;12.80;99.90;;;13.55;100.00;98609.69;5009216;28;20791;-87
2022/10/17 00:37:43;;;;;;;20.83;3.10;;;12.70;99.90;;;13.52;100.00;98604.81;5008715;28;21276;-87
2022/10/17 00:40:14;;;;;;;12.73;3.20;;;12.70;99.90;;;13.51;100.00;98611.06;5006743;28;20508;-87
2022/10/17 00:42:42;;;;;;;35.33;3.10;;;12.70;99.90;;;13.53;100.00;98611.72;5008327;28;20548;-87
2022/10/17 00:45:22;;;;;;;45.47;3.80;;;12.70;99.90;;;13.51;100.00;98608.44;5005008;28;20558;-87
2022/10/17 00:47:58;;;;;;;41.07;3.50;;;12.70;99.90;;;13.52;100.00;98609.25;5004653;28;20537;-87
2022/10/17 00:50:28;;;;;;;64.13;3.70;;;12.70;99.90;;;13.45;100.00;98613.66;5007170;28;20549;-87
2022/10/17 00:53:04;;;;;;;79.23;4.00;;;12.60;99.90;;;13.41;100.00;98607.16;5004468;28;20585;-87
2022/10/17 00:55:42;;;;;;;21.90;4.10;;;12.70;99.90;;;13.37;100.00;98604.09;5006846;28;20477;-87
2022/10/17 00:58:11;;;;;;;51.90;3.40;;;12.60;99.90;;;13.39;100.00;98609.16;5005096;28;20546;-88
2022/10/17 01:00:41;;;;;;;41.57;3.33;;;12.60;99.90;;;13.33;100.00;98605.47;5007948;28;20479;-86
2022/10/17 01:03:10;;;;;;;47.70;4.20;;;12.50;99.90;;;13.31;100.00;98604.84;5009897;28;21037;-87
2022/10/17 01:05:41;;;;;;;52.30;4.50;;;12.50;99.90;;;13.29;100.00;98604.25;5006905;28;20531;-87
2022/10/17 01:08:13;;;;;;;45.37;3.67;;;12.50;99.90;;;13.31;100.00;98602.22;5007294;28;20894;-87
2022/10/17 01:11:01;;;;;;;26.87;3.57;;;12.40;99.90;;;13.31;100.00;98602.22;5005254;28;20467;-87
2022/10/17 01:13:42;;;;;;;11.87;3.20;;;12.40;99.90;;;13.27;100.00;98598.34;5005590;28;20471;-87
2022/10/17 01:16:23;;;;;;;12.30;2.40;;;12.40;99.90;;;13.21;100.00;98607.00;5003888;28;20557;-87
2022/10/17 01:19:07;;;;;;;17.23;3.20;;;12.20;99.90;;;13.19;100.00;98602.94;5003391;28;20499;-87
2022/10/17 01:21:53;;;;;;;13.50;3.70;;;12.30;99.90;;;13.21;100.00;98611.44;5007993;28;20455;-85
2022/10/17 01:25:02;;;;;;;6.73;2.80;;;12.30;99.90;;;13.21;100.00;98612.25;5006684;28;20490;-88
2022/10/17 01:28:19;;;;;;;9.53;3.00;;;12.30;99.90;;;13.15;100.00;98614.84;5004706;28;20477;-87
2022/10/17 01:31:11;;;;;;;15.27;2.90;;;12.40;99.90;;;13.04;100.00;98616.94;5004950;28;20533;-86
2022/10/17 01:34:03;;;;;;;31.57;3.47;;;12.20;99.90;;;13.06;100.00;98619.34;5010145;28;20491;-87
2022/10/17 01:36:41;;;;;;;38.73;3.93;;;12.20;99.90;;;13.07;100.00;98621.00;5006096;28;20566;-87
2022/10/17 01:39:21;;;;;;;46.30;3.77;;;12.20;99.90;;;13.06;100.00;98620.16;5006928;28;20559;-87
2022/10/17 01:41:58;;;;;;;35.53;3.63;;;12.20;99.90;;;13.06;100.00;98624.59;5003956;28;20483;-87
2022/10/17 01:44:36;;;;;;;35.67;3.60;;;12.20;99.90;;;13.07;100.00;98627.06;5006665;28;20942;-87
2022/10/17 01:47:13;;;;;;;31.73;3.20;;;12.20;99.90;;;13.03;100.00;98615.31;5005121;28;20558;-87
2022/10/17 01:49:45;;;;;;;9.10;3.07;;;12.20;99.90;;;13.02;100.00;98612.84;5004537;28;21014;-87
2022/10/17 01:52:20;;;;;;;18.87;2.90;;;12.10;99.90;;;12.98;100.00;98615.03;5003765;28;20997;-87
2022/10/17 01:54:54;;;;;;;9.40;3.20;;;12.10;99.90;;;12.93;100.00;98608.75;5004070;28;20550;-87
2022/10/17 01:57:33;;;;;;;18.20;3.73;;;12.00;99.90;;;12.88;100.00;98606.66;5006819;28;20577;-87
2022/10/17 02:00:06;;;;;;;8.50;3.10;;;12.00;99.90;;;12.93;100.00;98603.50;5006139;28;20553;-87
2022/10/17 02:02:37;;;;;;;21.80;3.60;;;12.00;99.90;;;12.90;100.00;98606.50;5001584;28;20586;-88
2022/10/17 02:05:08;;;;;;;7.37;4.10;;;12.00;99.90;;;12.88;100.00;98608.47;5001478;28;20463;-87
2022/10/17 02:07:40;;;;;;;5.80;3.20;;;12.10;99.90;;;12.87;100.00;98599.00;5005036;28;20477;-87
2022/10/17 02:10:33;;;;;;;4.50;2.80;;;12.10;99.90;;;12.88;100.00;98596.16;5003029;28;20545;-87
2022/10/17 02:13:15;;;;;;;10.70;2.70;;;12.00;99.90;;;12.88;100.00;98600.59;5005961;28;20565;-86
2022/10/17 02:16:07;;;;;;;11.80;3.70;;;12.00;99.90;;;12.85;100.00;98598.34;5003255;28;20486;-87
2022/10/17 02:19:20;;;;;;;15.17;3.13;;;12.00;99.90;;;12.86;100.00;98586.88;5006455;28;20498;-87
2022/10/17 02:22:00;;;;;;;43.23;4.50;;;12.00;99.90;;;12.80;100.00;98579.75;5005978;28;20571;-87
2022/10/17 02:24:39;;;;;;;10.10;3.40;;;11.90;99.90;;;12.76;100.00;98591.63;5005851;28;20543;-87
2022/10/17 02:27:17;;;;;;;8.53;2.57;;;11.90;99.90;;;12.76;100.00;98594.25;5007247;28;20498;-87
2022/10/17 02:29:54;;;;;;;5.70;2.83;;;11.90;99.90;;;12.77;100.00;98598.50;5002049;28;20463;-87
2022/10/17 02:32:33;;;;;;;28.13;3.40;;;11.90;99.90;;;12.78;100.00;98595.66;5004829;28;21139;-87
2022/10/17 02:35:08;;;;;;;9.57;3.40;;;11.90;99.90;;;12.78;100.00;98595.66;5004004;28;21088;-88
2022/10/17 02:37:41;;;;;;;10.40;2.60;;;11.90;99.90;;;12.79;100.00;98599.13;5006029;28;20489;-86
2022/10/17 02:40:15;;;;;;;4.90;2.60;;;11.90;99.90;;;12.79;100.00;98601.72;5005454;28;20471;-88
2022/10/17 02:42:46;;;;;;;4.70;3.07;;;11.90;99.90;;;12.74;100.00;98601.50;5008716;28;20509;-87
2022/10/17 02:45:16;;;;;;;3.80;2.50;;;11.80;99.90;;;12.73;100.00;98592.00;5007746;28;20798;-87
2022/10/17 02:47:57;;;;;;;10.53;2.63;;;11.80;99.90;;;12.73;100.00;98592.00;5009473;28;20479;-87
2022/10/17 02:50:43;;;;;;;3.40;2.53;;;11.80;99.90;;;12.71;100.00;98589.53;5009217;28;20463;-87
2022/10/17 02:53:20;;;;;;;6.47;2.50;;;11.90;99.90;;;12.65;100.00;98586.84;5008356;28;20586;-86
2022/10/17 02:55:59;;;;;;;5.63;2.10;;;11.80;99.90;;;12.66;100.00;98591.13;5007178;28;20511;-86
2022/10/17 02:58:34;;;;;;;3.07;2.77;;;11.80;99.90;;;12.65;100.00;98590.28;5008968;28;20462;-87
2022/10/17 03:01:06;;;;;;;7.83;2.80;;;11.80;99.90;;;12.66;100.00;98591.13;5005522;28;20560;-87
2022/10/17 03:03:35;;;;;;;6.17;2.53;;;11.80;99.90;;;12.64;100.00;98599.16;5007622;28;20467;-87
2022/10/17 03:06:06;;;;;;;7.30;2.80;;;11.80;99.90;;;12.59;100.00;98594.50;5007225;28;20490;-87
2022/10/17 03:08:34;;;;;;;12.03;2.20;;;11.70;99.90;;;12.57;100.00;98598.28;5006886;28;20521;-87
2022/10/17 03:11:03;;;;;;;5.10;2.13;;;11.70;99.90;;;12.59;100.00;98601.53;5005675;28;20467;-81
2022/10/17 03:13:33;;;;;;;4.97;2.80;;;11.70;99.90;;;12.58;100.00;98605.97;5007443;28;20564;-87
2022/10/17 03:16:08;;;;;;;21.23;2.80;;;11.70;99.90;;;12.56;100.00;98602.72;5008506;28;20466;-87
2022/10/17 03:18:37;;;;;;;13.03;2.33;;;11.70;99.90;;;12.55;100.00;98601.09;5004859;28;20953;-86
2022/10/17 03:21:07;;;;;;;5.63;2.63;;;11.70;99.90;;;12.56;100.00;98607.94;5005758;28;20474;-87
2022/10/17 03:23:36;;;;;;;16.53;2.80;;;11.70;99.90;;;12.54;100.00;98598.66;5005874;28;20574;-87
2022/10/17 03:26:07;;;;;;;8.50;2.47;;;11.70;99.90;;;12.53;100.00;98603.09;5003703;28;20474;-87
2022/10/17 03:28:36;;;;;;;4.90;2.70;;;11.70;99.90;;;12.51;100.00;98607.72;5006071;28;20586;-84
2022/10/17 03:31:09;;;;;;;4.30;2.53;;;11.60;99.90;;;12.51;100.00;98610.34;5004559;28;20463;-85
2022/10/17 03:33:38;;;;;;;13.00;3.13;;;11.60;99.90;;;12.49;100.00;98608.91;5006970;28;20581;-85
2022/10/17 03:36:10;;;;;;;6.23;2.60;;;11.70;99.90;;;12.50;100.00;98608.69;5005426;28;20513;-85
2022/10/17 03:38:39;;;;;;;14.13;2.83;;;11.70;99.90;;;12.49;100.00;98612.34;5003218;28;20441;-86
2022/10/17 03:41:09;;;;;;;16.40;3.00;;;11.70;99.90;;;12.47;100.00;98614.31;5002770;28;20455;-85
2022/10/17 03:43:38;;;;;;;6.80;2.60;;;11.60;99.90;;;12.49;100.00;98606.28;5003889;28;20567;-86
2022/10/17 03:46:08;;;;;;;2.97;2.67;;;11.60;99.90;;;12.49;100.00;98607.09;5001219;28;20878;-85
2022/10/17 03:48:38;;;;;;;8.60;2.47;;;11.60;99.90;;;12.50;100.00;98610.50;5002779;28;20490;-84
2022/10/17 03:51:10;;;;;;;8.97;3.73;;;11.60;99.90;;;12.44;100.00;98622.56;5008066;28;20498;-85
2022/10/17 03:53:40;;;;;;;7.43;2.50;;;11.60;99.90;;;12.42;100.00;98626.38;5003349;28;20574;-85
2022/10/17 03:56:16;;;;;;;8.00;3.13;;;11.50;99.90;;;12.35;100.00;98623.69;5002552;28;20511;-85
2022/10/17 03:58:45;;;;;;;8.27;2.73;;;11.50;99.90;;;12.37;100.00;98629.53;5004998;28;20499;-85
2022/10/17 04:01:17;;;;;;;6.93;3.33;;;11.50;99.90;;;12.37;100.00;98626.91;5003017;28;20442;-85
2022/10/17 04:03:50;;;;;;;10.50;2.23;;;11.50;99.90;;;12.38;100.00;98631.19;5007365;28;20459;-85
2022/10/17 04:06:22;;;;;;;7.90;2.37;;;11.50;99.90;;;12.37;100.00;98640.03;5005948;28;20473;-85
2022/10/17 04:08:51;;;;;;;15.13;3.70;;;11.50;99.90;;;12.37;100.00;98633.97;5004565;28;20566;-86
2022/10/17 04:11:21;;;;;;;5.37;2.60;;;11.50;99.90;;;12.33;100.00;98633.53;5002174;28;20470;-83
2022/10/17 04:13:54;;;;;;;6.30;2.80;;;11.50;99.90;;;12.32;100.00;98634.50;5000164;28;20531;-88
2022/10/17 04:16:24;;;;;;;3.50;2.40;;;11.40;99.90;;;12.28;100.00;98641.16;5004095;28;20467;-86
2022/10/17 04:18:55;;;;;;;5.03;2.43;;;11.40;99.90;;;12.27;100.00;98638.69;5003540;28;20831;-86
2022/10/17 04:21:27;;;;;;;4.07;2.70;;;11.40;99.90;;;12.27;100.00;98638.69;5004283;28;20503;-86
2022/10/17 04:23:58;;;;;;;10.43;2.60;;;11.40;99.90;;;12.26;100.00;98640.50;5002783;28;20481;-83
2022/10/17 04:26:27;;;;;;;8.67;2.70;;;11.40;99.90;;;12.26;100.00;98630.00;5004940;28;20494;-88
2022/10/17 04:28:57;;;;;;;8.27;2.17;;;11.40;99.90;;;12.27;100.00;98630.81;5009795;28;20945;-87
2022/10/17 04:31:26;;;;;;;8.53;2.20;;;11.40;99.90;;;12.23;100.00;98627.75;5004481;28;20462;-86
2022/10/17 04:33:54;;;;;;;8.20;3.10;;;11.40;99.90;;;12.15;100.00;98627.84;5006501;28;20557;-86
2022/10/17 04:36:25;;;;;;;2.87;2.43;;;11.30;99.90;;;12.15;100.00;98632.31;5003483;28;20477;-87
2022/10/17 04:38:54;;;;;;;16.07;2.83;;;11.20;99.90;;;12.11;100.00;98635.25;5009025;28;20495;-88
2022/10/17 04:41:23;;;;;;;7.53;2.20;;;11.30;99.90;;;12.11;100.00;98644.97;5006045;28;21009;-90
2022/10/17 04:43:51;;;;;;;6.43;2.80;;;11.20;99.90;;;12.11;100.00;98639.72;5005072;28;20549;-87
2022/10/17 04:46:20;;;;;;;11.07;2.57;;;11.20;99.90;;;12.11;100.00;98637.09;5003177;28;20490;-88
2022/10/17 04:48:49;;;;;;;8.27;2.50;;;11.20;99.90;;;12.09;100.00;98631.19;5004756;28;20502;-88
2022/10/17 04:51:19;;;;;;;23.57;3.73;;;11.20;99.90;;;12.04;100.00;98630.94;5004468;28;20569;-87
2022/10/17 04:53:55;;;;;;;3.60;2.53;;;11.20;99.90;;;12.03;100.00;98635.38;5003374;28;20490;-87
2022/10/17 04:56:25;;;;;;;11.20;2.97;;;11.20;99.90;;;12.03;100.00;98634.56;5004999;28;20546;-88
2022/10/17 04:58:54;;;;;;;6.13;2.50;;;11.20;99.90;;;12.02;100.00;98630.31;5003769;28;20573;-82
2022/10/17 05:01:23;;;;;;;3.77;2.80;;;11.10;99.90;;;11.98;100.00;98624.59;5009425;28;20490;-88
2022/10/17 05:03:54;;;;;;;6.80;2.73;;;11.00;99.90;;;11.94;100.00;98631.19;5004549;28;20521;-87
2022/10/17 05:06:27;;;;;;;4.17;2.47;;;11.00;99.90;;;11.94;100.00;98638.28;5005088;28;20467;-87
2022/10/17 05:08:59;;;;;;;8.60;2.60;;;11.00;99.90;;;11.92;100.00;98640.25;5007181;28;20948;-87
2022/10/17 05:11:30;;;;;;;8.33;2.63;;;11.00;99.90;;;11.92;100.00;98637.63;5007227;28;20494;-87
2022/10/17 05:14:02;;;;;;;6.87;2.60;;;11.00;99.90;;;11.89;100.00;98635.38;5002643;28;20490;-86
2022/10/17 05:16:34;;;;;;;8.20;2.97;;;11.00;99.90;;;11.89;100.00;98630.94;5006753;28;20981;-88
2022/10/17 05:19:03;;;;;;;5.37;3.10;;;11.00;99.90;;;11.89;100.00;98628.31;5006190;28;20494;-89
2022/10/17 05:21:36;;;;;;;5.73;2.90;;;11.00;99.90;;;11.91;100.00;98634.19;5004319;28;20463;-90
2022/10/17 05:24:09;;;;;;;14.80;3.00;;;11.00;99.90;;;11.91;100.00;98636.00;5010542;28;20471;-90
2022/10/17 05:26:39;;;;;;;7.20;3.00;;;11.00;99.90;;;11.88;100.00;98629.31;5009443;28;20491;-90
2022/10/17 05:29:09;;;;;;;3.10;2.73;;;11.00;99.90;;;11.88;100.00;98623.25;5008801;28;20559;-88
2022/10/17 05:31:38;;;;;;;6.17;2.70;;;11.00;99.90;;;11.87;100.00;98627.69;5011473;28;20454;-86
2022/10/17 05:34:08;;;;;;;5.47;3.10;;;11.00;99.90;;;11.84;100.00;98633.28;5009722;28;20529;-87
2022/10/17 05:36:41;;;;;;;6.47;3.20;;;11.00;99.90;;;11.78;100.00;98636.63;5011559;28;20449;-88
2022/10/17 05:39:18;;;;;;;4.40;3.03;;;10.90;99.90;;;11.76;100.00;98636.00;5014682;28;20490;-87
2022/10/17 05:41:47;;;;;;;6.20;2.63;;;10.90;99.90;;;11.74;100.00;98642.41;5011737;28;20462;-88
2022/10/17 05:44:16;;;;;;;6.33;3.23;;;10.80;99.90;;;11.75;100.00;98644.84;5014911;28;20482;-88
2022/10/17 05:46:48;;;;;;;13.50;3.07;;;10.90;99.90;;;11.71;100.00;98640.13;5017520;28;20451;-87
2022/10/17 05:49:18;;;;;;;10.73;3.80;;;10.90;99.90;;;11.68;100.00;98637.84;5014435;28;20464;-87
2022/10/17 05:52:08;;;;;;;18.30;3.60;;;10.80;99.90;;;11.63;100.00;98636.56;5011078;28;20443;-87
2022/10/17 05:54:39;;;;;;;15.33;4.00;;;10.80;99.90;;;11.63;100.00;98651.47;5014116;28;20533;-87
2022/10/17 05:57:08;;;;;;;8.53;3.00;;;10.70;99.90;;;11.63;100.00;98649.69;5014144;28;20563;-87
2022/10/17 05:59:37;;;;;;;26.40;3.17;;;10.70;99.90;;;11.61;100.00;98648.25;5016086;28;20521;-87
2022/10/17 06:02:07;;;;;;;14.07;3.20;;;10.80;99.90;;;11.61;100.00;98649.06;5013256;28;20462;-87
2022/10/17 06:04:36;;;;;;;5.13;2.83;;;10.80;99.90;;;11.59;100.00;98651.03;5017851;28;20463;-87
2022/10/17 06:07:06;;;;;;;8.30;3.63;;;10.70;99.90;;;11.59;100.00;98647.63;5019472;28;20477;-88
2022/10/17 06:09:44;;;;;;;8.20;3.33;;;10.80;99.90;;;11.60;100.00;98644.78;5012681;28;20462;-88
2022/10/17 06:12:13;;;;;;;12.00;4.10;;;10.80;99.90;;;11.61;100.00;98649.06;5019047;28;20525;-87
2022/10/17 06:14:41;;;;;;;7.43;2.90;;;10.80;99.90;;;11.57;100.00;98650.41;5020728;28;20515;-87
2022/10/17 06:17:11;;;;;;;5.20;3.27;;;10.70;99.90;;;11.59;100.00;98665.94;5018975;28;20478;-88
2022/10/17 06:19:44;;;;;;;7.93;4.30;;;10.70;99.90;;;11.56;100.00;98659.25;5016900;28;20465;-88
2022/10/17 06:22:13;;;;;;;18.00;3.77;;;10.70;99.90;;;11.58;100.00;98654.66;5020671;28;20450;-87
2022/10/17 06:24:45;;;;;;;7.17;3.60;;;10.70;99.90;;;11.58;100.00;98659.88;5021385;28;20516;-88
2022/10/17 06:27:20;;;;;;;8.27;3.47;;;10.70;99.90;;;11.56;100.00;98667.09;5020669;28;20884;-87
2022/10/17 06:29:51;;;;;;;11.33;2.90;;;10.70;99.90;;;11.55;100.00;98660.25;5019492;28;20463;-87
2022/10/17 06:32:20;;;;;;;15.03;3.43;;;10.70;99.90;;;11.56;100.00;98661.84;5020392;28;20466;-88
2022/10/17 06:34:51;;;;;;;7.07;3.83;;;10.70;99.90;;;11.57;100.00;98666.13;5019299;28;20499;-88
2022/10/17 06:37:20;;;;;;;6.70;3.67;;;10.70;99.90;;;11.58;100.00;98670.38;5017398;28;20438;-87
2022/10/17 06:39:51;;;;;;;8.43;3.70;;;10.70;99.90;;;11.56;100.00;98682.81;5022672;28;20466;-87
2022/10/17 06:42:21;;;;;;;8.40;3.97;;;10.70;99.90;;;11.56;100.00;98689.84;5017496;28;20463;-87
2022/10/17 06:44:50;;;;;;;8.80;4.13;;;10.80;99.90;;;11.57;100.00;98697.53;5018355;28;20475;-88
2022/10/17 06:47:20;;;;;;;6.10;3.47;;;10.80;99.90;;;11.60;100.00;98702.44;5020342;28;20463;-87
2022/10/17 06:49:50;;;;;;;6.83;4.10;;;10.80;99.90;;;11.66;100.00;98710.59;5018747;28;20447;-85
2022/10/17 06:52:19;;;;;;;13.37;3.57;;;10.80;99.90;;;11.67;100.00;98709.56;5018007;28;20505;-88
2022/10/17 06:54:52;;;;;;;6.70;3.70;;;10.90;99.90;;;11.70;100.00;98715.28;5011748;28;20541;-88
2022/10/17 06:57:22;;;;;;;7.90;3.33;;;10.90;99.90;;;11.73;100.00;98725.41;5016841;28;20453;-87
2022/10/17 06:59:54;;;;;;;6.77;3.53;;;10.90;99.90;;;11.77;100.00;98731.13;5015583;28;20460;-87
2022/10/17 07:02:23;;;;;;;7.33;3.10;;;10.90;99.90;;;11.80;100.00;98717.69;5015547;28;20942;-87
2022/10/17 07:04:52;;;;;;;6.23;3.53;;;11.00;99.90;;;11.83;100.00;98718.16;5018011;28;20447;-87
2022/10/17 07:07:22;;;;;;;11.10;3.83;;;11.00;99.90;;;11.86;100.00;98727.47;5012795;28;20479;-87
2022/10/17 07:09:54;;;;;;;6.73;3.57;;;11.10;99.90;;;11.89;100.00;98729.72;5011637;28;20499;-87
2022/10/17 07:12:36;;;;;;;10.43;3.97;;;11.20;99.90;;;11.91;100.00;98738.19;5008787;28;20456;-87
2022/10/17 07:15:06;;;;;;;5.30;3.83;;;11.10;99.90;;;11.90;100.00;98744.47;5012081;28;21039;-88
2022/10/17 07:17:35;;;;;;;7.57;3.90;;;11.20;99.90;;;11.95;100.00;98742.09;5005848;28;20494;-87
2022/10/17 07:20:05;;;;;;;11.00;3.60;;;11.20;99.90;;;11.99;100.00;98746.00;5008198;28;20966;-87
2022/10/17 07:22:35;;;;;;;14.07;4.17;;;11.30;99.90;;;12.01;100.00;98741.38;5009906;28;20471;-87
2022/10/17 07:25:07;;;;;;;14.10;4.33;;;11.30;99.90;;;12.06;100.00;98752.16;5013842;28;20458;-88
2022/10/17 07:27:36;;;;;;;8.77;4.37;;;11.40;99.90;;;12.09;100.00;98751.78;5013293;28;20459;-87
2022/10/17 07:30:08;;;;;;;20.53;3.87;;;11.40;99.90;;;12.11;100.00;98755.06;5011657;28;20456;-87
2022/10/17 07:32:37;;;;;;;17.13;4.10;;;11.40;99.90;;;12.16;100.00;98750.09;5015293;28;20495;-87
2022/10/17 07:35:08;;;;;;;11.40;4.50;;;11.50;99.90;;;12.22;100.00;98754.59;5011438;28;20865;-88
2022/10/17 07:37:38;;;;;;;12.80;4.60;;;11.50;99.90;;;12.26;100.00;98757.69;5008929;28;20451;-88
2022/10/17 07:40:10;;;;;;;21.37;4.83;;;11.60;99.90;;;12.27;100.00;98749.66;5016070;28;20456;-87
2022/10/17 07:42:40;;;;;;;7.17;5.20;;;11.60;99.90;;;12.29;100.00;98760.75;5016354;28;20456;-87
2022/10/17 07:45:11;;;;;;;9.83;3.87;;;11.60;99.90;;;12.34;100.00;98761.03;5015632;28;20456;-88
2022/10/17 07:47:40;;;;;;;8.50;4.07;;;11.70;99.90;;;12.39;100.00;98774.41;5016065;28;20462;-87
2022/10/17 07:50:10;;;;;;;16.00;4.63;;;11.70;99.90;;;12.42;100.00;98763.59;5010863;28;20471;-87
2022/10/17 07:52:39;;;;;;;6.07;4.23;;;11.80;99.90;;;12.44;100.00;98760.78;5012748;28;20509;-87
2022/10/17 07:55:11;;;;;;;8.00;4.60;;;11.80;99.90;;;12.48;100.00;98760.25;5012677;28;20582;-88
2022/10/17 07:57:40;;;;;;;8.73;3.93;;;11.80;99.90;;;12.51;100.00;98761.69;5012347;28;20451;-88
2022/10/17 08:00:11;;;;;;;4.83;3.63;;;11.90;99.90;;;12.54;100.00;98766.56;5017098;28;20447;-88
2022/10/17 08:02:40;;;;;;;8.10;3.97;;;11.90;99.90;;;12.56;100.00;98773.25;5013423;28;20546;-87
2022/10/17 08:05:09;;;;;;;17.53;5.00;;;11.90;99.90;;;12.61;100.00;98770.91;5014850;28;20463;-87
2022/10/17 08:07:40;;;;;;;16.00;5.30;;;12.00;99.90;;;12.64;100.00;98761.84;5012230;28;20462;-87
2022/10/17 08:10:13;;;;;;;12.20;4.50;;;12.00;99.90;;;12.68;100.00;98767.53;5018693;28;20493;-88
2022/10/17 08:12:43;;;;;;;7.37;4.63;;;12.00;99.90;;;12.71;100.00;98761.91;5014312;28;20538;-87
2022/10/17 08:15:13;;;;;;;12.73;4.53;;;12.10;99.90;;;12.76;100.00;98767.44;5011987;28;21380;-85
2022/10/17 08:17:42;;;;;;;9.47;4.57;;;12.10;99.90;;;12.79;100.00;98775.78;5006333;28;20946;-87
2022/10/17 08:20:12;;;;;;;12.50;4.50;;;12.20;99.90;;;12.83;100.00;98777.03;5009499;28;20882;-88
2022/10/17 08:22:40;;;;;;;5.57;3.53;;;12.20;99.90;;;12.89;100.00;98780.72;5009840;28;20475;-87
2022/10/17 08:25:13;;;;;;;5.80;4.20;;;12.30;99.90;;;12.94;100.00;98778.38;5009014;28;20467;-88
2022/10/17 08:27:42;;;;;;;15.23;5.20;;;12.40;99.90;;;12.99;100.00;98768.94;5009081;28;20877;-87
2022/10/17 08:30:12;;;;;;;7.63;4.43;;;12.40;99.90;;;13.05;100.00;98780.53;5010412;28;20442;-88
2022/10/17 08:32:41;;;;;;;8.17;4.97;;;12.50;99.90;;;13.15;100.00;98782.91;5009669;28;20966;-88
2022/10/17 08:35:11;;;;;;;9.20;4.47;;;12.60;99.90;;;13.22;100.00;98775.91;5009607;28;20523;-88
2022/10/17 08:37:40;;;;;;;10.13;4.57;;;12.70;99.90;;;13.31;100.00;98774.78;5010377;28;20459;-87
2022/10/17 08:40:22;;;;;;;18.07;5.30;;;12.80;99.90;;;13.36;100.00;98777.69;5007984;28;20447;-87
2022/10/17 08:43:31;;;;;;;6.53;4.80;;;12.90;99.90;;;13.54;100.00;98778.84;5007347;28;20463;-87
2022/10/17 08:46:08;;;;;;;10.23;4.37;;;13.10;99.90;;;13.61;100.00;98786.81;4951236;29;21044;-87
2022/10/17 08:48:42;;;;;;;6.60;4.43;;;13.20;99.90;;;13.71;100.00;98792.56;5005179;28;20989;-88
2022/10/17 08:51:21;;;;;;;9.73;4.70;;;13.30;99.90;;;13.83;100.00;98792.88;5010156;28;20945;-87
2022/10/17 08:53:56;;;;;;;9.40;4.83;;;13.40;99.90;;;13.93;100.00;98796.81;5010097;28;20502;-87
2022/10/17 08:56:35;;;;;;;10.23;5.50;;;13.50;99.90;;;14.09;100.00;98798.38;5010060;28;20618;-87
2022/10/17 08:59:23;;;;;;;5.87;4.10;;;13.70;99.90;;;14.23;100.00;98809.81;5010020;28;20460;-87
2022/10/17 09:02:03;;;;;;;8.00;4.30;;;13.90;99.90;;;14.33;100.00;98811.09;5010898;28;20454;-87
2022/10/17 09:05:00;;;;;;;4.80;4.27;;;13.90;99.90;;;14.49;100.00;98804.72;5012561;28;20465;-87
2022/10/17 09:07:45;;;;;;;6.03;4.97;;;14.10;99.90;;;14.57;100.00;98805.41;5011863;28;20462;-88
2022/10/17 09:10:25;;;;;;;10.10;3.83;;;14.20;99.90;;;14.61;100.00;98819.78;5013329;28;20558;-87
2022/10/17 09:13:21;;;;;;;10.57;4.23;;;14.20;99.90;;;14.68;100.00;98816.41;5013644;28;20545;-88
2022/10/17 09:16:14;;;;;;;12.33;4.83;;;14.30;99.90;;;14.75;100.00;98827.78;5014016;28;20490;-87
2022/10/17 09:18:53;;;;;;;9.43;4.00;;;14.40;99.90;;;14.77;100.00;98831.84;5010620;28;20506;-87
2022/10/17 09:21:32;;;;;;;9.97;4.03;;;14.40;99.90;;;14.81;100.00;98829.63;5012511;28;20457;-88
2022/10/17 09:24:11;;;;;;;16.90;5.17;;;14.50;99.90;;;14.91;100.00;98838.00;5011216;28;20463;-88
2022/10/17 09:26:47;;;;;;;8.63;4.23;;;14.60;99.90;;;14.95;100.00;98839.22;5012831;28;20455;-87
2022/10/17 09:29:23;;;;;;;4.27;3.87;;;14.60;99.90;;;15.04;100.00;98853.84;5013798;28;20555;-87
2022/10/17 09:32:02;;;;;;;11.27;4.10;;;14.70;99.90;;;15.09;100.00;98854.91;5008699;28;20455;-88
2022/10/17 09:34:33;;;;;;;8.33;4.20;;;14.70;99.90;;;15.22;100.00;98843.59;5010333;28;20439;-87
2022/10/17 09:37:06;;;;;;;3.90;3.43;;;14.90;99.90;;;15.29;100.00;98854.97;5010753;28;20990;-88
2022/10/17 09:39:35;;;;;;;6.70;3.63;;;15.00;99.90;;;15.35;100.00;98858.63;5011706;28;20471;-87
2022/10/17 09:42:04;;;;;;;7.63;4.00;;;15.00;99.90;;;15.40;100.00;98854.44;5006635;28;20451;-85
2022/10/17 09:44:38;;;;;;;12.93;3.50;;;15.10;99.90;;;15.44;100.00;98853.03;5007448;28;20524;-87
2022/10/17 09:47:25;;;;;;;3.50;3.13;;;15.10;99.90;;;15.49;100.00;98857.72;5010360;28;20890;-87
2022/10/17 09:49:55;;;;;;;12.80;4.13;;;15.20;99.90;;;15.52;100.00;98868.69;5008011;28;20489;-87
2022/10/17 09:52:31;;;;;;;5.10;3.30;;;15.20;99.90;;;15.54;100.00;98860.59;5007503;28;20467;-86
2022/10/17 09:55:06;;;;;;;8.40;3.47;;;15.20;99.90;;;15.64;100.00;98855.75;5008339;28;20475;-87
2022/10/17 09:57:55;;;;;;;14.33;3.83;;;15.30;99.90;;;15.70;100.00;98869.94;5007449;28;20510;-88
2022/10/17 10:00:29;;;;;;;8.07;3.40;;;15.40;99.90;;;15.77;100.00;98866.31;5007629;28;20539;-87
2022/10/17 10:03:19;;;;;;;6.70;3.10;;;15.40;99.90;;;15.85;100.00;98865.31;5006100;28;20458;-88
2022/10/17 10:06:04;;;;;;;4.53;3.23;;;15.60;99.90;;;16.03;100.00;98868.19;5007102;28;20456;-87
2022/10/17 10:08:37;;;;;;;4.73;3.50;;;15.70;99.90;;;16.16;100.00;98859.47;5005506;28;20490;-88
2022/10/17 10:11:09;;;;;;;8.90;3.30;;;15.90;99.90;;;16.18;100.00;98863.50;5003733;28;20483;-87
2022/10/17 10:13:43;;;;;;;7.60;3.50;;;15.90;99.90;;;16.29;100.00;98862.91;5004244;28;21393;-87
2022/10/17 10:16:32;;;;;;;4.57;3.27;;;16.00;99.90;;;16.43;100.00;98867.19;5008119;28;20498;-87
2022/10/17 10:19:02;;;;;;;4.03;3.40;;;16.10;99.90;;;16.46;100.00;98868.59;5007366;28;21023;-88
2022/10/17 10:21:49;;;;;;;8.33;3.40;;;16.10;99.90;;;16.54;100.00;98860.47;5007983;28;20468;-87
2022/10/17 10:24:19;;;;;;;8.27;3.13;;;16.20;99.90;;;16.57;100.00;98857.44;5007148;28;20443;-88
2022/10/17 10:26:51;;;;;;;10.80;3.73;;;16.30;99.90;;;16.63;100.00;98855.81;5007318;28;20444;-87
2022/10/17 10:29:29;;;;;;;5.30;3.20;;;16.30;99.90;;;16.70;100.00;98856.59;5006468;28;20499;-87
2022/10/17 10:32:10;;;;;;;10.90;3.40;;;16.40;99.90;;;16.73;100.00;98857.00;5007803;28;20819;-88
2022/10/17 10:34:48;;;;;;;3.23;2.93;;;16.50;99.90;;;16.74;100.00;98861.28;5006534;28;20502;-87
2022/10/17 10:37:23;;;;;;;11.00;3.27;;;16.50;99.90;;;16.76;100.00;98856.63;5007725;28;20496;-87